Time;durP1;ratioP1;P1;durP2;ratioP2;P2;SDS_P1;SDS_P2;PMS_P1;PMS_P2;Temp;Humidity;BMP_temperature;BMP_pressure;BME280_temperature;BME280_humidity;BME280_pressure;Samples;Min_cycle;Max_cycle;Signal;HPM_P1;HPM_P2
2022/12/21 00:04:26;;;;;;;31.30;13.27;;;1.90;99.90;;;-0.65;98.77;100915.50;10538737;28;20411;-79
2022/12/21 00:09:29;;;;;;;35.20;14.67;;;1.90;99.90;;;-0.64;98.72;100903.28;10534858;28;20063;-80
2022/12/21 00:14:32;;;;;;;31.67;13.57;;;1.90;99.90;;;-0.64;98.69;100900.69;10542218;28;20110;-79
2022/12/21 00:19:35;;;;;;;33.50;13.90;;;1.90;99.90;;;-0.64;98.64;100901.53;10523568;28;20049;-78
2022/12/21 00:24:38;;;;;;;30.30;13.63;;;1.90;99.90;;;-0.63;98.64;100897.13;10547592;28;20055;-79
2022/12/21 00:29:41;;;;;;;32.97;14.27;;;1.90;99.90;;;-0.64;98.13;100890.22;10576232;28;20059;-79
2022/12/21 00:34:44;;;;;;;34.50;14.33;;;1.90;99.90;;;-0.64;98.47;100885.00;10575037;28;20064;-80
2022/12/21 00:39:47;;;;;;;33.87;14.17;;;1.90;99.90;;;-0.63;98.15;100895.38;10547617;28;20090;-80
2022/12/21 00:44:50;;;;;;;28.57;11.83;;;1.90;99.90;;;-0.62;98.16;100889.22;10566257;28;20056;-80
2022/12/21 00:49:53;;;;;;;29.70;12.40;;;1.90;99.90;;;-0.61;98.23;100895.28;10535096;28;20140;-80
2022/12/21 00:54:56;;;;;;;36.90;15.20;;;2.00;99.90;;;-0.61;97.47;100895.28;10540907;28;20066;-79
2022/12/21 00:59:59;;;;;;;34.70;14.63;;;1.90;99.90;;;-0.62;97.87;100898.81;10542571;28;20064;-80
2022/12/21 01:05:02;;;;;;;29.83;13.47;;;1.90;99.90;;;-0.62;97.69;100896.22;10540932;28;20082;-79
2022/12/21 01:10:06;;;;;;;35.73;14.73;;;1.90;99.90;;;-0.61;97.49;100890.91;10560104;28;20110;-79
2022/12/21 01:15:09;;;;;;;34.40;14.07;;;1.90;99.90;;;-0.59;97.47;100883.00;10547780;28;20486;-79
2022/12/21 01:20:13;;;;;;;33.63;13.20;;;1.90;99.90;;;-0.60;97.37;100876.09;10552306;28;20063;-79
2022/12/21 01:25:16;;;;;;;29.47;13.70;;;2.00;99.90;;;-0.58;97.65;100871.66;10530486;28;20081;-79
2022/12/21 01:30:19;;;;;;;27.80;12.83;;;2.00;99.90;;;-0.57;97.33;100857.66;10554006;28;20142;-79
2022/12/21 01:35:22;;;;;;;29.43;12.73;;;2.00;99.90;;;-0.59;97.45;100867.34;10556365;28;20090;-80
2022/12/21 01:40:29;;;;;;;31.93;14.60;;;2.00;99.90;;;-0.56;97.18;100859.34;10554463;28;20723;-80
2022/12/21 01:45:33;;;;;;;28.13;12.67;;;2.00;99.90;;;-0.57;97.18;100845.44;10535158;28;20067;-80
2022/12/21 01:51:01;;;;;;;27.00;12.63;;;2.00;99.90;;;-0.55;97.04;100833.16;10554990;27;20157;-79
2022/12/21 01:56:10;;;;;;;27.70;12.10;;;2.00;99.90;;;-0.55;97.00;100827.09;10561060;27;20142;-80
2022/12/21 02:01:13;;;;;;;26.20;12.93;;;2.00;99.90;;;-0.56;96.52;100815.81;10549180;28;20056;-79
2022/12/21 02:06:30;;;;;;;32.50;14.17;;;2.00;99.90;;;-0.54;96.70;100841.81;10536112;28;20068;-79
2022/12/21 02:11:33;;;;;;;35.10;14.60;;;2.00;99.90;;;-0.54;96.61;100828.75;10549120;28;20056;-80
2022/12/21 02:17:09;;;;;;;29.47;12.63;;;2.00;99.90;;;-0.52;97.14;100808.66;10558867;28;20090;-79
2022/12/21 02:22:36;;;;;;;30.90;13.20;;;2.00;99.90;;;-0.51;96.86;100806.88;10564962;28;20064;-79
2022/12/21 02:28:24;;;;;;;37.37;14.33;;;2.00;99.90;;;-0.53;96.87;100799.16;10553267;28;20122;-79
2022/12/21 02:33:56;;;;;;;33.57;16.03;;;2.00;99.90;;;-0.55;96.37;100769.66;10533672;28;20539;-79
2022/12/21 02:39:35;;;;;;;31.48;13.05;;;2.00;99.90;;;-0.55;96.54;100769.66;10524264;28;20070;-79
2022/12/21 02:44:55;;;;;;;35.83;14.83;;;2.00;99.90;;;-0.58;96.58;100765.44;10548752;28;20062;-79
2022/12/21 02:50:08;;;;;;;31.07;13.53;;;2.00;99.90;;;-0.55;96.54;100772.25;10547194;28;20466;-79
2022/12/21 02:55:14;;;;;;;31.60;13.90;;;2.00;99.90;;;-0.56;96.69;100765.38;10530007;28;20064;-79
2022/12/21 03:00:19;;;;;;;37.97;16.17;;;2.00;99.90;;;-0.55;96.64;100772.25;10536743;28;20109;-79
2022/12/21 03:05:47;;;;;;;29.47;13.13;;;2.00;99.90;;;-0.55;96.55;100761.81;10520265;28;20064;-79
2022/12/21 03:11:01;;;;;;;32.27;13.93;;;2.00;99.90;;;-0.54;96.94;100760.88;10558599;28;20055;-79
2022/12/21 03:16:34;;;;;;;30.20;13.60;;;2.00;99.90;;;-0.54;96.92;100742.63;10546339;28;20063;-79
2022/12/21 03:21:53;;;;;;;33.53;14.37;;;2.00;99.90;;;-0.53;96.77;100726.06;10526247;28;20179;-79
2022/12/21 03:27:04;;;;;;;31.83;14.27;;;2.00;99.90;;;-0.57;96.31;100724.53;10528829;28;20056;-79
2022/12/21 03:32:19;;;;;;;35.50;16.98;;;2.00;99.90;;;-0.55;96.34;100720.88;10553710;28;20499;-79
2022/12/21 03:37:32;;;;;;;41.13;16.00;;;2.00;99.90;;;-0.57;96.04;100732.34;10552791;28;20626;-79
2022/12/21 03:42:41;;;;;;;37.83;15.13;;;2.00;99.90;;;-0.60;96.15;100725.53;10519589;28;20060;-79
2022/12/21 03:47:56;;;;;;;40.70;16.53;;;2.00;99.90;;;-0.61;96.16;100731.66;10557580;28;20056;-79
2022/12/21 03:53:13;;;;;;;40.40;16.30;;;1.90;99.90;;;-0.60;96.28;100743.81;10560179;28;20067;-79
2022/12/21 03:58:16;;;;;;;30.77;15.17;;;1.90;99.90;;;-0.60;95.78;100742.94;10551697;28;20138;-79
2022/12/21 04:03:29;;;;;;;40.83;16.40;;;1.90;99.90;;;-0.60;96.32;100749.03;10563095;28;20140;-79
2022/12/21 04:08:33;;;;;;;31.70;14.47;;;1.90;99.90;;;-0.62;95.91;100742.19;10552062;28;20150;-79
2022/12/21 04:13:36;;;;;;;35.60;15.50;;;1.90;99.90;;;-0.63;95.93;100741.38;10524720;28;21546;-79
2022/12/21 04:29:21;;;;;;;36.80;15.40;;;1.90;99.90;;;-0.62;95.63;100716.09;10543365;28;20087;-79
2022/12/21 04:34:24;;;;;;;36.10;15.40;;;1.90;99.90;;;-0.62;95.48;100716.09;10539991;28;20067;-79
2022/12/21 04:39:27;;;;;;;39.97;16.60;;;1.90;99.90;;;-0.65;94.93;100721.50;10541051;28;20060;-80
2022/12/21 04:44:30;;;;;;;35.10;16.17;;;1.90;99.90;;;-0.66;95.34;100735.44;10559008;28;20447;-79
2022/12/21 04:49:33;;;;;;;36.13;14.87;;;1.90;99.90;;;-0.67;94.78;100732.00;10546314;28;20506;-81
2022/12/21 04:54:40;;;;;;;32.57;13.83;;;1.80;99.90;;;-0.67;95.12;100726.78;10580307;27;20090;-79
2022/12/21 04:59:44;;;;;;;33.97;13.90;;;1.80;99.90;;;-0.65;94.74;100716.28;10566084;28;20063;-79
2022/12/21 05:04:47;;;;;;;28.57;12.83;;;1.90;99.90;;;-0.67;94.22;100712.91;10555087;28;20083;-79
2022/12/21 05:09:50;;;;;;;34.90;14.53;;;1.80;99.90;;;-0.69;94.16;100710.38;10559272;28;20143;-79
2022/12/21 05:14:53;;;;;;;38.23;14.93;;;1.80;99.90;;;-0.71;93.90;100717.47;10561767;28;20299;-79
2022/12/21 05:19:56;;;;;;;33.10;14.43;;;1.80;99.90;;;-0.72;93.66;100704.47;10562670;28;20165;-79
2022/12/21 05:24:59;;;;;;;29.97;13.53;;;1.80;99.90;;;-0.73;93.54;100700.19;10576021;28;20554;-78
2022/12/21 05:30:03;;;;;;;33.37;13.83;;;1.80;99.90;;;-0.77;92.90;100696.06;10569304;28;20057;-79
2022/12/21 05:35:07;;;;;;;33.13;13.93;;;1.70;99.90;;;-0.79;92.11;100717.00;10522753;28;20060;-79
2022/12/21 05:40:18;;;;;;;28.52;12.43;;;1.70;99.90;;;-0.85;91.80;100705.13;10542903;28;20435;-81
2022/12/21 05:45:24;;;;;;;27.30;11.77;;;1.70;99.90;;;-0.84;91.64;100700.75;10543905;28;20056;-81
2022/12/21 05:50:26;;;;;;;34.27;12.47;;;1.60;99.90;;;-0.82;91.07;100706.75;10531511;28;20096;-80
2022/12/21 05:55:30;;;;;;;25.17;11.00;;;1.70;99.90;;;-0.81;90.93;100704.06;10557875;27;20057;-79
2022/12/21 06:00:36;;;;;;;22.10;10.00;;;1.70;99.90;;;-0.81;90.83;100714.50;10564467;27;20092;-77
2022/12/21 06:05:39;;;;;;;26.57;10.93;;;1.70;99.90;;;-0.79;90.78;100708.34;10564640;27;20064;-78
2022/12/21 06:10:42;;;;;;;29.63;12.17;;;1.70;99.90;;;-0.77;90.73;100709.13;10521047;28;20060;-79
2022/12/21 06:15:45;;;;;;;24.13;11.10;;;1.70;99.90;;;-0.77;90.62;100709.97;10553297;28;20060;-78
2022/12/21 06:20:52;;;;;;;24.63;10.47;;;1.70;99.90;;;-0.78;90.18;100702.19;10540046;28;20063;-78
2022/12/21 06:26:00;;;;;;;28.97;12.60;;;1.70;99.90;;;-0.79;89.44;100703.97;10556347;28;20060;-79
2022/12/21 06:31:13;;;;;;;28.63;11.83;;;1.80;99.90;;;-0.75;89.64;100696.81;10544008;28;20061;-79
2022/12/21 06:36:16;;;;;;;24.83;11.97;;;1.70;99.90;;;-0.74;89.25;100691.50;10540807;28;20107;-79
2022/12/21 06:41:19;;;;;;;26.37;11.00;;;1.70;99.90;;;-0.71;89.21;100700.97;10554882;28;20071;-78
2022/12/21 06:46:22;;;;;;;27.73;11.10;;;1.80;99.90;;;-0.69;89.06;100693.88;10573937;28;20053;-84
2022/12/21 06:51:25;;;;;;;18.33;8.53;;;1.80;99.90;;;-0.66;88.69;100691.94;10524434;28;20063;-83
2022/12/21 06:56:31;;;;;;;22.20;10.17;;;1.90;99.90;;;-0.63;88.79;100683.09;10547491;28;20115;-83
2022/12/21 07:01:35;;;;;;;28.07;11.23;;;1.90;99.90;;;-0.60;89.12;100677.69;10540090;28;20222;-80
2022/12/21 07:06:41;;;;;;;20.47;9.97;;;1.90;99.90;;;-0.56;88.99;100684.44;10551248;28;20582;-83
2022/12/21 07:11:46;;;;;;;27.40;10.73;;;2.00;99.90;;;-0.53;88.71;100694.72;10543033;28;20067;-83
2022/12/21 07:16:49;;;;;;;26.63;10.90;;;2.00;99.90;;;-0.50;88.65;100678.03;10542880;27;20162;-84
2022/12/21 07:21:52;;;;;;;27.70;12.30;;;2.00;99.90;;;-0.48;88.57;100677.03;10526883;28;20063;-84
2022/12/21 07:26:55;;;;;;;26.67;10.53;;;2.00;99.90;;;-0.46;88.27;100683.00;10554502;28;20064;-84
2022/12/21 07:31:58;;;;;;;63.97;23.13;;;2.00;99.90;;;-0.44;88.08;100675.91;10554570;28;20055;-85
2022/12/21 07:37:01;;;;;;;43.57;16.80;;;2.10;99.90;;;-0.41;87.90;100683.59;10571073;28;20060;-85
2022/12/21 07:42:04;;;;;;;43.20;19.43;;;2.10;99.90;;;-0.39;87.60;100676.50;10562886;27;20065;-84
2022/12/21 07:47:15;;;;;;;36.22;14.60;;;2.10;99.90;;;-0.33;87.42;100676.16;10531932;28;20063;-87
2022/12/21 07:52:19;;;;;;;40.53;18.17;;;2.20;99.90;;;-0.29;87.38;100674.22;10559249;28;20055;-82
2022/12/21 07:57:22;;;;;;;29.53;13.37;;;2.20;99.90;;;-0.23;87.30;100668.66;10543628;28;20071;-84
2022/12/21 08:02:26;;;;;;;35.73;16.47;;;2.30;99.90;;;-0.19;86.88;100659.69;10532928;28;20140;-83
2022/12/21 08:07:29;;;;;;;65.37;23.30;;;2.40;99.90;;;-0.13;86.94;100668.94;10550603;28;20141;-84
2022/12/21 08:12:31;;;;;;;54.47;21.27;;;2.40;99.90;;;-0.08;87.08;100664.31;10553625;28;20130;-84
2022/12/21 08:17:35;;;;;;;41.93;16.93;;;2.50;99.90;;;-0.04;86.47;100665.81;10572486;28;20060;-84
2022/12/21 08:22:37;;;;;;;80.30;24.93;;;2.50;99.90;;;0.00;86.68;100656.88;10564971;28;20059;-82
2022/12/21 08:27:41;;;;;;;40.60;16.93;;;2.50;99.90;;;0.01;86.09;100655.94;10541208;28;20060;-80
2022/12/21 08:32:44;;;;;;;34.20;14.27;;;2.50;99.90;;;0.05;85.89;100660.03;10561148;28;20052;-80
2022/12/21 08:37:47;;;;;;;36.07;15.43;;;2.60;99.90;;;0.12;86.14;100660.53;10555584;28;20167;-80
2022/12/21 08:42:49;;;;;;;28.90;12.60;;;2.60;99.90;;;0.16;85.81;100651.59;10562633;28;20110;-81
2022/12/21 08:47:52;;;;;;;30.33;14.97;;;2.70;99.90;;;0.19;85.89;100659.25;10536608;28;20198;-81
2022/12/21 08:52:55;;;;;;;47.67;18.70;;;2.70;99.90;;;0.23;85.29;100650.28;10530658;28;20086;-80
2022/12/21 08:57:58;;;;;;;32.50;13.83;;;2.80;99.90;;;0.29;85.56;100656.94;10556160;28;20056;-80
2022/12/21 09:03:01;;;;;;;33.67;14.97;;;2.80;99.90;;;0.33;85.50;100648.81;10540518;28;20071;-80
2022/12/21 09:08:04;;;;;;;28.80;12.83;;;2.90;99.90;;;0.39;85.24;100650.22;10539783;28;20064;-80
2022/12/21 09:13:07;;;;;;;34.37;14.57;;;2.90;99.90;;;0.43;84.80;100649.13;10533767;28;20060;-80
2022/12/21 09:18:11;;;;;;;41.10;16.70;;;3.00;99.90;;;0.45;84.56;100642.00;10546340;28;20105;-80
2022/12/21 09:23:14;;;;;;;37.23;17.20;;;3.00;99.90;;;0.46;84.15;100631.44;10548946;28;20068;-80
2022/12/21 09:28:17;;;;;;;51.37;20.33;;;3.00;99.90;;;0.48;84.43;100619.16;10551294;28;20071;-80
2022/12/21 09:33:23;;;;;;;33.17;14.07;;;3.00;99.90;;;0.54;83.85;100607.47;10535935;28;20056;-80
2022/12/21 09:38:28;;;;;;;32.60;13.47;;;3.10;99.90;;;0.53;83.33;100604.00;10549416;28;20500;-81
2022/12/21 09:43:58;;;;;;;27.00;13.43;;;3.10;99.90;;;0.53;82.79;100598.75;10536501;28;20147;-80
2022/12/21 09:49:13;;;;;;;37.13;14.43;;;3.10;99.90;;;0.53;82.15;100597.91;10550070;28;20549;-80
2022/12/21 09:54:22;;;;;;;37.30;14.57;;;3.10;99.90;;;0.49;81.25;100597.28;10537697;28;20056;-80
2022/12/21 09:59:25;;;;;;;35.10;16.27;;;3.10;99.90;;;0.47;81.13;100600.91;10526888;28;20048;-80
2022/12/21 10:04:51;;;;;;;32.73;14.87;;;3.00;99.90;;;0.43;81.33;100596.81;10562671;28;20059;-80
2022/12/21 10:10:36;;;;;;;31.30;13.90;;;3.00;99.90;;;0.41;81.59;100593.44;10585810;27;20067;-80
2022/12/21 10:16:32;;;;;;;35.77;14.87;;;3.00;99.90;;;0.39;81.12;100583.09;10560430;28;20171;-81
2022/12/21 10:21:57;;;;;;;34.10;14.00;;;2.90;99.90;;;0.40;81.46;100582.16;10557777;28;20052;-80
2022/12/21 10:27:37;;;;;;;34.07;15.07;;;2.90;99.90;;;0.41;81.06;100562.91;10534575;28;20110;-80
2022/12/21 10:32:45;;;;;;;37.27;15.97;;;3.00;99.90;;;0.38;81.36;100551.81;10546701;28;20618;-80
2022/12/21 10:37:55;;;;;;;31.33;14.27;;;2.90;99.90;;;0.39;80.88;100556.09;10535494;28;20052;-79
2022/12/21 10:42:59;;;;;;;40.20;16.17;;;2.90;99.90;;;0.40;80.95;100549.94;10537217;28;20067;-80
2022/12/21 10:48:03;;;;;;;30.10;14.27;;;2.90;99.90;;;0.45;81.38;100553.94;10535947;28;20405;-80
2022/12/21 10:53:27;;;;;;;27.80;13.03;;;3.00;99.90;;;0.48;81.13;100547.69;10558069;27;20053;-80
2022/12/21 10:58:34;;;;;;;43.97;17.80;;;3.00;99.90;;;0.48;80.70;100538.09;10537289;28;20057;-79
2022/12/21 11:03:39;;;;;;;33.60;14.40;;;3.10;99.90;;;0.51;80.77;100532.66;10539931;28;20064;-80
2022/12/21 11:08:47;;;;;;;35.83;13.03;;;3.10;99.90;;;0.49;80.37;100520.63;10555736;28;20056;-79
2022/12/21 11:14:16;;;;;;;42.23;16.77;;;3.10;99.90;;;0.45;80.34;100525.19;10559227;28;20060;-80
2022/12/21 11:19:22;;;;;;;29.47;12.30;;;3.00;99.90;;;0.45;80.00;100522.56;10553307;27;20064;-80
2022/12/21 11:24:33;;;;;;;29.07;13.80;;;3.00;99.90;;;0.44;80.00;100525.28;10556604;27;20133;-79
2022/12/21 11:29:46;;;;;;;;;;;3.00;99.90;;;0.46;80.10;100513.78;10520417;28;20056;-79
2022/12/21 11:34:55;;;;;;;27.70;12.40;;;3.00;99.90;;;0.49;80.08;100508.38;10564082;28;19928;-81
2022/12/21 11:40:20;;;;;;;32.60;15.77;;;3.10;99.90;;;0.52;79.87;100502.94;10555535;28;20064;-81
2022/12/21 11:45:57;;;;;;;30.53;14.47;;;3.10;99.90;;;0.55;79.32;100491.47;10539166;28;20147;-80
2022/12/21 11:51:37;;;;;;;28.47;13.57;;;3.10;99.90;;;0.59;79.62;100498.16;10558472;28;20061;-81
2022/12/21 11:56:44;;;;;;;25.77;12.43;;;3.10;99.90;;;0.59;78.85;100486.88;10506724;28;20087;-80
2022/12/21 12:02:11;;;;;;;28.33;12.90;;;3.10;99.90;;;0.61;78.84;100490.25;10525556;28;20080;-78
2022/12/21 12:07:48;;;;;;;25.50;12.27;;;3.10;99.90;;;0.64;79.56;100469.13;10554301;28;20131;-79
2022/12/21 12:13:34;;;;;;;27.10;13.13;;;3.10;99.90;;;0.64;79.00;100469.13;10545348;28;20136;-80
2022/12/21 12:18:50;;;;;;;28.90;12.20;;;3.20;99.90;;;0.63;78.84;100465.66;10545557;28;20060;-81
2022/12/21 12:24:12;;;;;;;28.53;12.13;;;3.20;99.90;;;0.61;78.52;100467.53;10546258;28;20122;-79
2022/12/21 12:29:43;;;;;;;27.30;13.30;;;3.20;99.90;;;0.58;78.19;100464.28;10544404;28;20067;-81
2022/12/21 12:34:59;;;;;;;27.30;11.60;;;3.20;99.90;;;0.53;78.05;100464.56;10553878;28;20052;-80
2022/12/21 12:40:42;;;;;;;25.87;11.37;;;3.10;99.90;;;0.54;77.81;100458.41;10545245;28;20090;-80
2022/12/21 12:46:12;;;;;;;32.03;14.23;;;3.10;99.90;;;0.53;77.98;100451.47;10556055;28;20084;-79
2022/12/21 12:51:36;;;;;;;26.70;11.73;;;3.10;99.90;;;0.58;78.17;100456.44;10553552;28;20084;-79
2022/12/21 12:56:44;;;;;;;25.20;10.90;;;3.10;99.90;;;0.59;78.28;100458.94;10546525;28;20502;-81
2022/12/21 13:01:55;;;;;;;22.00;11.47;;;3.10;99.90;;;0.62;77.93;100447.47;10546001;28;20060;-83
2022/12/21 13:07:27;;;;;;;25.52;12.52;;;3.20;99.90;;;0.64;77.86;100446.41;10545642;28;20088;-79
2022/12/21 13:12:55;;;;;;;27.77;12.37;;;3.20;99.90;;;0.64;77.52;100443.78;10535113;28;20067;-83
2022/12/21 13:18:17;;;;;;;29.57;12.43;;;3.20;99.90;;;0.62;76.70;100445.69;10547332;28;20063;-79
2022/12/21 13:23:47;;;;;;;32.72;14.52;;;3.20;99.90;;;0.58;76.47;100452.03;10553562;28;20060;-79
2022/12/21 13:29:17;;;;;;;29.23;11.33;;;3.10;99.90;;;0.57;76.43;100445.13;10533410;28;20060;-80
2022/12/21 13:34:24;;;;;;;25.73;11.67;;;3.10;99.90;;;0.57;77.11;100439.91;10558541;28;20056;-79
2022/12/21 13:39:36;;;;;;;27.50;12.23;;;3.10;99.90;;;0.59;77.28;100440.63;10539554;28;20091;-79
2022/12/21 13:45:39;;;;;;;27.20;11.52;;;3.10;99.90;;;0.58;76.81;100436.34;10557036;28;20401;-79
2022/12/21 13:51:10;;;;;;;26.65;10.95;;;3.10;99.90;;;0.57;76.84;100421.59;10569258;28;22037;-79
2022/12/21 13:56:33;;;;;;;21.63;11.43;;;3.10;99.90;;;0.55;76.67;100422.66;10578120;28;20057;-79
2022/12/21 14:01:57;;;;;;;25.73;11.53;;;3.10;99.90;;;0.54;76.40;100424.44;10546488;28;20508;-79
2022/12/21 14:07:38;;;;;;;27.93;13.60;;;3.10;99.90;;;0.51;76.48;100404.53;10539903;28;20068;-79
2022/12/21 14:13:18;;;;;;;25.00;10.93;;;3.10;99.90;;;0.49;76.27;100408.19;10555610;28;20538;-79
2022/12/21 14:18:44;;;;;;;27.53;12.77;;;3.10;99.90;;;0.48;76.35;100396.03;10558298;28;20091;-91
2022/12/21 14:23:57;;;;;;;29.97;11.90;;;3.00;99.90;;;0.47;76.47;100396.97;10563245;28;20530;-79
2022/12/21 14:29:28;;;;;;;22.93;10.43;;;3.00;99.90;;;0.46;77.06;100400.53;10561937;28;20060;-79
2022/12/21 14:34:56;;;;;;;32.73;14.23;;;3.00;99.90;;;0.46;77.20;100405.75;10542610;28;20060;-79
2022/12/21 14:40:23;;;;;;;33.87;15.77;;;3.00;99.90;;;0.43;77.75;100404.19;10541097;28;20147;-78
2022/12/21 14:45:41;;;;;;;28.40;14.07;;;3.00;99.90;;;0.42;77.91;100412.09;10542791;28;20044;-78
2022/12/21 14:51:01;;;;;;;30.87;14.50;;;2.90;99.90;;;0.38;78.29;100406.25;10563272;28;20147;-78
2022/12/21 14:56:16;;;;;;;18.30;10.03;;;2.90;99.90;;;0.40;78.46;100414.00;10550021;28;20071;-78
2022/12/21 15:01:32;;;;;;;31.20;14.53;;;2.90;99.90;;;0.40;79.21;100414.00;10562328;28;20056;-78
2022/12/21 15:06:39;;;;;;;24.00;11.03;;;2.90;99.90;;;0.38;79.31;100394.97;10544616;28;20063;-78
2022/12/21 15:12:39;;;;;;;28.07;12.47;;;2.90;99.90;;;0.35;79.11;100400.38;10538476;28;20531;-78
2022/12/21 15:17:42;;;;;;;37.23;15.87;;;2.90;99.90;;;0.34;79.31;100410.00;10533816;28;20057;-78
2022/12/21 15:23:24;;;;;;;31.37;13.27;;;2.90;99.90;;;0.33;79.66;100410.94;10559784;28;20053;-77
2022/12/21 15:28:36;;;;;;;81.90;34.08;;;2.90;99.90;;;0.31;79.71;100406.75;10523074;28;20056;-77
2022/12/21 15:33:41;;;;;;;47.47;23.33;;;2.90;99.90;;;0.30;80.12;100412.88;10532146;28;20056;-78
2022/12/21 15:38:54;;;;;;;43.87;20.17;;;2.80;99.90;;;0.25;80.22;100419.25;10541057;28;20064;-78
2022/12/21 15:44:20;;;;;;;34.07;15.93;;;2.80;99.90;;;0.23;80.56;100408.03;10524588;28;20082;-77
2022/12/21 15:49:33;;;;;;;43.07;18.23;;;2.80;99.90;;;0.19;80.61;100401.34;10539033;28;20056;-79
2022/12/21 15:54:43;;;;;;;42.50;18.13;;;2.70;99.90;;;0.16;81.12;100400.69;10545840;28;20060;-77
2022/12/21 15:59:49;;;;;;;48.40;19.43;;;2.70;99.90;;;0.13;81.74;100401.75;10579807;28;20053;-77
2022/12/21 16:04:52;;;;;;;31.67;15.10;;;2.70;99.90;;;0.09;82.15;100410.69;10570787;28;20175;-77
2022/12/21 16:10:02;;;;;;;40.07;17.43;;;2.60;99.90;;;0.06;81.82;100405.69;10537403;28;20064;-77
2022/12/21 16:15:31;;;;;;;34.63;15.27;;;2.60;99.90;;;0.03;82.37;100413.69;10554910;28;20105;-77
2022/12/21 16:20:55;;;;;;;32.77;15.20;;;2.50;99.90;;;-0.01;82.95;100404.34;10558773;28;20084;-77
2022/12/21 16:25:59;;;;;;;31.47;14.50;;;2.50;99.90;;;-0.04;83.49;100407.19;10548157;28;20080;-77
2022/12/21 16:31:32;;;;;;;29.00;13.37;;;2.50;99.90;;;-0.06;83.88;100407.28;10554150;28;20056;-77
2022/12/21 16:36:35;;;;;;;42.28;16.17;;;2.50;99.90;;;-0.08;84.41;100410.91;10568631;27;20106;-76
2022/12/21 16:41:38;;;;;;;31.30;14.17;;;2.40;99.90;;;-0.12;84.60;100423.34;10559133;28;20064;-77
2022/12/21 16:46:54;;;;;;;32.30;14.47;;;2.40;99.90;;;-0.16;84.77;100421.00;10546500;28;20507;-77
2022/12/21 16:52:01;;;;;;;28.00;12.73;;;2.40;99.90;;;-0.20;85.61;100419.50;10554150;28;20063;-77
2022/12/21 16:57:10;;;;;;;29.90;14.03;;;2.30;99.90;;;-0.22;85.91;100419.59;10546828;28;20055;-77
2022/12/21 17:02:28;;;;;;;34.03;15.30;;;2.30;99.90;;;-0.25;86.11;100417.16;10565828;28;20078;-78
2022/12/21 17:07:39;;;;;;;29.10;12.57;;;2.20;99.90;;;-0.26;86.21;100415.47;10527212;28;20539;-78
2022/12/21 17:13:07;;;;;;;37.80;14.40;;;2.20;99.90;;;-0.27;86.57;100414.66;10539352;28;20063;-76
2022/12/21 17:19:02;;;;;;;32.50;14.33;;;2.20;99.90;;;-0.25;86.98;100405.88;10578490;28;20056;-76
2022/12/21 17:24:34;;;;;;;35.33;13.43;;;2.20;99.90;;;-0.25;87.03;100400.66;10385987;28;20061;-79
2022/12/21 17:29:39;;;;;;;31.88;12.10;;;2.30;99.90;;;-0.25;87.25;100398.03;10546592;28;20467;-79
2022/12/21 17:34:44;;;;;;;27.67;13.07;;;2.30;99.90;;;-0.25;87.54;100395.44;10540187;28;20530;-78
2022/12/21 17:39:47;;;;;;;32.97;15.27;;;2.30;99.90;;;-0.24;88.08;100386.66;10549820;28;20060;-78
2022/12/21 17:44:50;;;;;;;37.63;15.00;;;2.30;99.90;;;-0.25;88.10;100390.19;10555384;28;20443;-78
2022/12/21 17:49:53;;;;;;;38.00;17.07;;;2.20;99.90;;;-0.25;88.13;100375.38;10535830;28;20671;-77
2022/12/21 17:54:56;;;;;;;35.73;16.13;;;2.20;99.90;;;-0.27;87.77;100383.31;10547042;28;20147;-77
2022/12/21 17:59:59;;;;;;;41.97;20.27;;;2.20;99.90;;;-0.25;87.87;100377.16;10548984;28;20107;-78
2022/12/21 18:05:03;;;;;;;43.80;19.70;;;2.20;99.90;;;-0.30;87.24;100373.06;10554767;28;20052;-77
2022/12/21 18:10:31;;;;;;;44.37;19.20;;;2.20;99.90;;;-0.29;88.20;100360.84;10547541;28;20063;-77
2022/12/21 18:15:36;;;;;;;43.87;19.80;;;2.20;99.90;;;-0.27;88.31;100361.59;10553630;28;20135;-77
2022/12/21 18:20:44;;;;;;;38.23;16.43;;;2.30;99.90;;;-0.24;88.62;100366.63;10544574;28;20056;-77
2022/12/21 18:25:47;;;;;;;53.27;23.93;;;2.30;99.90;;;-0.20;89.01;100354.19;10535678;28;20153;-77
2022/12/21 18:31:10;;;;;;;84.57;33.43;;;2.30;99.90;;;-0.16;89.11;100356.53;10552259;28;20061;-77
2022/12/21 18:36:16;;;;;;;37.80;17.67;;;2.40;99.90;;;-0.12;89.27;100350.19;10544082;28;20179;-77
2022/12/21 18:41:27;;;;;;;49.70;20.67;;;2.40;99.90;;;-0.09;89.57;100347.38;10558216;28;20071;-77
2022/12/21 18:46:51;;;;;;;62.93;24.13;;;2.40;99.90;;;-0.05;89.86;100343.63;10524530;28;20066;-77
2022/12/21 18:51:54;;;;;;;39.90;16.40;;;2.50;99.90;;;-0.03;89.91;100336.53;10547486;27;20060;-77
2022/12/21 18:56:57;;;;;;;42.67;16.50;;;2.50;99.90;;;-0.03;90.12;100338.31;10550325;28;20070;-77
2022/12/21 19:02:00;;;;;;;41.13;15.50;;;2.50;99.90;;;-0.05;90.05;100350.66;10547448;28;20056;-77
2022/12/21 19:07:03;;;;;;;47.40;19.80;;;2.50;99.90;;;-0.06;90.43;100341.97;10557598;28;20063;-81
2022/12/21 19:12:16;;;;;;;46.53;19.23;;;2.50;99.90;;;-0.03;90.80;100338.31;10547429;27;20063;-83
2022/12/21 19:17:34;;;;;;;35.73;16.33;;;2.50;99.90;;;0.00;90.50;100327.69;10552570;28;20095;-79
2022/12/21 19:22:37;;;;;;;56.07;21.63;;;2.50;99.90;;;0.01;90.84;100342.41;10544647;28;20514;-80
2022/12/21 19:27:40;;;;;;;52.40;22.30;;;2.60;99.90;;;-0.01;90.68;100344.28;10573256;28;20056;-78
2022/12/21 19:32:44;;;;;;;40.87;15.83;;;2.50;99.90;;;-0.05;90.59;100334.97;10546884;28;20067;-79
2022/12/21 19:37:50;;;;;;;60.47;23.10;;;2.50;99.90;;;-0.04;90.62;100345.31;10548023;28;20060;-79
2022/12/21 19:42:53;;;;;;;66.07;22.23;;;2.50;99.90;;;-0.05;90.55;100341.03;10538069;28;20191;-79
2022/12/21 19:47:57;;;;;;;35.03;13.37;;;2.50;99.90;;;-0.05;90.12;100341.03;10550754;28;20060;-80
2022/12/21 19:53:01;;;;;;;35.63;14.73;;;2.50;99.90;;;-0.04;90.11;100339.25;10537444;28;20829;-79
2022/12/21 19:58:04;;;;;;;32.87;14.20;;;2.50;99.90;;;-0.05;90.00;100334.97;10560992;28;20060;-80
2022/12/21 20:03:08;;;;;;;24.00;11.77;;;2.50;99.90;;;-0.02;90.08;100332.97;10542939;28;20548;-80
2022/12/21 20:08:19;;;;;;;19.43;10.27;;;2.50;99.90;;;-0.03;89.69;100331.31;10537822;28;20064;-80
2022/12/21 20:13:23;;;;;;;30.02;13.93;;;2.60;99.90;;;0.03;89.57;100347.53;10526458;28;20356;-81
2022/12/21 20:18:27;;;;;;;32.80;14.30;;;2.50;99.90;;;0.05;89.74;100340.44;10555266;28;20055;-80
2022/12/21 20:23:30;;;;;;;34.80;15.67;;;2.60;99.90;;;0.05;89.83;100346.50;10525956;28;20117;-80
2022/12/21 20:28:34;;;;;;;29.03;12.47;;;2.60;99.90;;;0.06;90.23;100345.59;10531748;28;20056;-80
2022/12/21 20:33:37;;;;;;;32.90;14.60;;;2.60;99.90;;;0.07;90.44;100336.81;10544379;28;20147;-81
2022/12/21 20:38:40;;;;;;;34.17;14.73;;;2.60;99.90;;;0.06;90.52;100336.88;10526209;28;20057;-80
2022/12/21 20:43:46;;;;;;;27.00;12.40;;;2.60;99.90;;;0.03;90.46;100342.31;10541346;28;20071;-80
2022/12/21 20:48:49;;;;;;;37.67;14.87;;;2.60;99.90;;;-0.01;90.25;100344.28;10556187;27;20501;-80
2022/12/21 20:53:53;;;;;;;34.97;14.63;;;2.50;99.90;;;-0.04;89.13;100337.47;10537983;28;20068;-80
2022/12/21 20:58:57;;;;;;;38.40;15.60;;;2.50;99.90;;;-0.06;88.74;100338.50;10542544;28;20150;-79
2022/12/21 21:04:02;;;;;;;31.17;14.23;;;2.50;99.90;;;-0.07;88.73;100323.75;10534201;28;20060;-80
2022/12/21 21:09:23;;;;;;;24.43;10.83;;;2.40;99.90;;;-0.08;88.85;100314.25;10520180;28;20193;-80
2022/12/21 21:14:33;;;;;;;31.60;13.93;;;2.40;99.90;;;-0.08;88.51;100325.53;10539310;28;20067;-78
2022/12/21 21:19:36;;;;;;;34.37;16.23;;;2.40;99.90;;;-0.08;88.84;100317.69;10554922;28;20064;-78
2022/12/21 21:24:49;;;;;;;34.67;16.27;;;2.40;99.90;;;-0.06;89.64;100320.19;10541418;28;20803;-79
2022/12/21 21:29:51;;;;;;;32.60;15.47;;;2.40;99.90;;;-0.06;89.64;100305.41;10562163;28;20060;-79